Pagrindinis puslapis
METAR-TAF:

METAR-TAF

Oro uostai :

Altenstadt, Vokietija

platuma: 47-50N, ilguma: 010-52E, Aukštis: 739 m

Dabartinis oras

Ataskaita buvo paskelbta 26 minutes, ne 13:20 UTC
Vėjas 6 kt iš Šiaurės Rytų
Temperatūra 18°C
Drėgmė 24%
Slėgis 1029 hPa
Matomumas 10 km arba daugiau

METAR: ETHA 251320Z 04006KT 9999 18/M03 Q1029 BLACKBLU+BLU+

Laikas: 14:46 (13:46 UTC)

Prognozė

Ataskaita buvo paskelbta 2 valandos ir 26 minutes, ne 11:20 UTC
Prognozė galioja nuo 25 metu 12 UTC su 25 metu 21 UTC
Vėjas 5 kt iš Rytų/Šiaurės Rytų
Matomumas 10 km arba daugiau
Giedras dangus

TAF: ETHA 251120Z 2512/2521 06005KT 9999 NSW SKC

Orai ataskaitas ir orų prognozės (METAR, TAF).

turimą stotys yra geltonos ir raudonos taškus žemėlapyje.

Perkelti pele per norėdami pamatyti stoties vardą.

Tada spustelėkite, norėdami matyti oro stebėjimo ir prognozės.

Norėdami pakeisti žemėlapį: spustelėkite ant žalios mygtukų su juodo kryžiaus žemyn,; žalią mygtuką su brūkšneliu, jei norite nutolinti; arba žalių rodyklių gretimoms žemėlapius.


METAR-TAF: